アシガバート の空港の天気 - METARとTAF

アシガバート空港 ( UTAA / ASB ) - トルクメニスタン アシガバート
飛行場実況気象(Metar)
観測時間03/29 02:00 +05 (03/28 21:00 UTC)
風向・風速西北西 6m/s
視程10km以上
天気現象
少しの雲 雲底高度 1520m
全天の8割程度の雲 雲底高度 1520m
全天の8割程度の雲 雲底高度 3050m
気温15℃
湿度59%
気圧1015hPa
METARUTAA 282100Z 30012KT 9999 FEW050CB BKN050 BKN100 15/07 Q1015 R88/70D NOSIG
過去の天気等 Google飛行場航空写真 Wunderground天気予報

過去48時間のMETAR

飛行場予報(TAF)
発表時間: 3/28 21:30 +05 (3/28 16:30 UTC)
予報対象時間: 28日23時 +05 ~ 29日23時 +05
風向・風速西 10m/s
視程5,000m
全天の8割程度の雲 雲底高度 300m
全天の4割程度の積乱雲 雲底高度 1,520m
28日23時 +05 ~ 29日4時 +05 に一時的に
風向・風速不定 15m/s
視程1,500m
天気現象塵嵐 雷雨
29日4時 +05 ~ 29日7時 +05 に一時的に
風向・風速西北西 9m/s
視程3,000m
天気現象弱いしゅう雨
29日4時 +05 ~ 29日7時 +05 に 確率 40% で一時的に
天気現象
TAF UTAA 281630Z 2818/2918 26020KT 5000 BKN010 SCT050CB 530009
TEMPO 2818/2823 VRB30KT 1500 DS TSRA
TEMPO 2823/2902 30018KT 3000 -SHRA
PROB40 TEMPO 2823/2902 TS